createdAt,value
2018-09-26T00:00:00.773Z,3.30
2018-09-26T00:02:32.353Z,3.47
2018-09-26T00:05:01.159Z,3.30
2018-09-26T00:07:29.896Z,3.07
2018-09-26T00:09:58.694Z,2.97
2018-09-26T00:12:27.445Z,3.50
2018-09-26T00:14:56.194Z,3.60
2018-09-26T00:17:25.179Z,3.77
2018-09-26T00:19:53.857Z,3.90
2018-09-26T00:22:22.844Z,3.93
2018-09-26T00:24:51.549Z,3.47
2018-09-26T00:27:20.350Z,4.07
2018-09-26T00:29:49.051Z,3.90
2018-09-26T00:32:17.869Z,4.40
2018-09-26T00:34:46.642Z,4.10
2018-09-26T00:37:15.406Z,4.30
2018-09-26T00:39:44.070Z,3.80
2018-09-26T00:42:12.911Z,4.00
2018-09-26T00:44:41.660Z,4.37
2018-09-26T00:47:10.450Z,4.90
2018-09-26T00:49:39.164Z,4.43
2018-09-26T00:52:07.978Z,5.10
2018-09-26T00:54:36.726Z,4.57
2018-09-26T00:57:05.532Z,4.40
2018-09-26T00:59:34.236Z,5.27
2018-09-26T01:02:02.957Z,4.50
2018-09-26T01:04:31.651Z,4.90
2018-09-26T01:07:00.634Z,4.70
2018-09-26T01:09:29.387Z,4.40
2018-09-26T01:11:58.278Z,4.77
2018-09-26T01:14:27.106Z,5.30
2018-09-26T01:16:55.778Z,4.60
2018-09-26T01:19:24.629Z,4.33
2018-09-26T01:21:53.334Z,4.80
2018-09-26T01:24:22.196Z,4.50
2018-09-26T01:26:50.973Z,4.80
2018-09-26T01:29:19.697Z,4.37
2018-09-26T01:31:48.647Z,4.90
2018-09-26T01:34:17.390Z,5.13
2018-09-26T01:36:46.712Z,4.73
2018-09-26T01:39:15.496Z,4.40
2018-09-26T01:41:44.175Z,5.20
2018-09-26T01:44:12.986Z,4.90
2018-09-26T01:46:41.721Z,4.93
2018-09-26T01:49:10.409Z,5.10
2018-09-26T01:51:39.162Z,5.07
2018-09-26T01:54:08.014Z,5.23
2018-09-26T01:56:36.879Z,5.00
2018-09-26T01:59:05.638Z,4.97
2018-09-26T02:01:34.367Z,5.40
2018-09-26T02:04:03.052Z,5.07
2018-09-26T02:06:32.353Z,5.53
2018-09-26T02:09:01.034Z,5.60
2018-09-26T02:11:33.161Z,5.40
2018-09-26T02:14:01.997Z,6.23
2018-09-26T02:16:30.830Z,6.00
2018-09-26T02:19:00.603Z,6.17
2018-09-26T02:21:29.582Z,5.90
2018-09-26T02:23:58.411Z,6.03
2018-09-26T02:26:27.192Z,5.80
2018-09-26T02:28:56.046Z,5.77
2018-09-26T02:31:25.583Z,6.03
2018-09-26T02:33:54.413Z,6.40
2018-09-26T02:36:24.291Z,6.07
2018-09-26T02:38:53.036Z,5.93
2018-09-26T02:41:22.566Z,6.17
2018-09-26T02:43:51.421Z,6.30
2018-09-26T02:46:20.093Z,6.13
2018-09-26T02:49:09.337Z,6.53
2018-09-26T02:51:38.478Z,6.77
2018-09-26T02:54:07.978Z,6.20
2018-09-26T02:56:36.979Z,6.33
2018-09-26T02:59:05.729Z,6.00
2018-09-26T03:01:34.526Z,6.77
2018-09-26T03:04:03.201Z,7.00
2018-09-26T03:06:31.956Z,6.43
2018-09-26T03:09:00.647Z,6.63
2018-09-26T03:11:29.409Z,6.37
2018-09-26T03:13:58.113Z,6.93
2018-09-26T03:16:26.897Z,7.17
2018-09-26T03:18:55.771Z,6.80
2018-09-26T03:21:24.682Z,6.60
2018-09-26T03:23:54.900Z,6.80
2018-09-26T03:26:27.873Z,7.00
2018-09-26T03:28:57.342Z,6.93
2018-09-26T03:31:26.135Z,6.47
2018-09-26T03:33:55.594Z,7.30
2018-09-26T03:36:24.512Z,7.20
2018-09-26T03:38:53.199Z,7.07
2018-09-26T03:41:22.090Z,7.83
2018-09-26T03:43:50.842Z,7.60
2018-09-26T03:46:19.566Z,8.00
2018-09-26T03:48:48.261Z,8.17
2018-09-26T03:51:17.035Z,8.30
2018-09-26T03:53:45.770Z,7.23
2018-09-26T03:56:14.642Z,8.47
2018-09-26T03:58:43.366Z,8.77
2018-09-26T04:01:12.209Z,8.37
2018-09-26T04:03:41.028Z,8.00
2018-09-26T04:06:09.790Z,8.80
2018-09-26T04:08:38.630Z,8.00
2018-09-26T04:11:07.526Z,8.57
2018-09-26T04:13:36.211Z,8.93
2018-09-26T04:16:05.042Z,9.13
2018-09-26T04:18:33.693Z,8.73
2018-09-26T04:21:02.566Z,10.03
2018-09-26T04:23:31.342Z,9.33
2018-09-26T04:26:00.108Z,9.87
2018-09-26T04:28:28.982Z,9.50
2018-09-26T04:30:57.889Z,9.07
2018-09-26T04:33:26.981Z,9.37
2018-09-26T04:35:55.629Z,9.57
2018-09-26T04:38:24.508Z,9.03
2018-09-26T04:40:53.398Z,9.60
2018-09-26T04:43:22.344Z,9.50
2018-09-26T04:45:51.182Z,9.53
2018-09-26T04:48:19.883Z,9.03
2018-09-26T04:50:48.736Z,9.07
2018-09-26T04:53:17.450Z,9.30
2018-09-26T04:55:46.322Z,10.20
2018-09-26T04:58:15.193Z,9.80
2018-09-26T05:00:43.966Z,10.20
2018-09-26T05:03:12.806Z,10.37
2018-09-26T05:05:42.698Z,9.60
2018-09-26T05:08:11.533Z,10.83
2018-09-26T05:10:40.337Z,10.80
2018-09-26T05:13:09.088Z,10.20
2018-09-26T05:15:38.279Z,9.97
2018-09-26T05:18:06.654Z,11.00
2018-09-26T05:20:35.544Z,11.03
2018-09-26T05:23:05.116Z,10.37
2018-09-26T05:25:34.434Z,10.80
2018-09-26T05:28:03.318Z,11.10
2018-09-26T05:30:32.292Z,11.17
2018-09-26T05:33:00.932Z,10.73
2018-09-26T05:35:29.698Z,9.90
2018-09-26T05:37:58.539Z,11.77
2018-09-26T05:40:27.378Z,11.43
2018-09-26T05:42:56.246Z,12.10
2018-09-26T05:45:25.274Z,11.20
2018-09-26T05:47:54.196Z,11.47
2018-09-26T05:50:23.560Z,11.20
2018-09-26T05:52:52.999Z,10.93
2018-09-26T05:55:22.144Z,11.53
2018-09-26T05:57:51.301Z,11.53
2018-09-26T06:00:20.205Z,10.70
2018-09-26T06:02:49.031Z,11.30
2018-09-26T06:05:17.993Z,10.70
2018-09-26T06:07:46.846Z,9.93
2018-09-26T06:10:15.719Z,10.37
2018-09-26T06:12:44.560Z,10.53
2018-09-26T06:15:13.359Z,9.90
2018-09-26T06:17:42.067Z,9.20
2018-09-26T06:20:11.035Z,8.53
2018-09-26T06:22:39.932Z,9.30
2018-09-26T06:25:08.757Z,9.93
2018-09-26T06:27:37.456Z,9.17
2018-09-26T06:30:07.790Z,9.17
2018-09-26T06:32:36.810Z,8.70
2018-09-26T06:35:05.879Z,8.47
2018-09-26T06:37:35.516Z,9.37
2018-09-26T06:40:04.340Z,9.73
2018-09-26T06:42:33.233Z,9.20
2018-09-26T06:45:02.124Z,8.70
2018-09-26T06:47:31.711Z,9.63
2018-09-26T06:50:00.480Z,9.73
2018-09-26T06:52:29.192Z,9.20
2018-09-26T06:54:57.970Z,9.17
2018-09-26T06:57:26.705Z,8.93
2018-09-26T06:59:55.891Z,8.97
2018-09-26T07:02:24.831Z,8.93
2018-09-26T07:04:53.569Z,8.50
2018-09-26T07:07:22.729Z,8.30
2018-09-26T07:09:51.476Z,8.80
2018-09-26T07:12:20.356Z,8.57
2018-09-26T07:14:50.055Z,8.10
2018-09-26T07:17:18.897Z,8.30
2018-09-26T07:19:47.702Z,8.63
2018-09-26T07:22:17.240Z,8.80
2018-09-26T07:24:45.940Z,8.10
2018-09-26T07:27:14.744Z,7.67
2018-09-26T07:29:43.488Z,7.77
2018-09-26T07:32:12.371Z,6.80
2018-09-26T07:34:41.191Z,6.80
2018-09-26T07:37:09.945Z,7.03
2018-09-26T07:39:39.196Z,6.80
2018-09-26T07:42:08.050Z,5.93
2018-09-26T07:44:36.851Z,6.97
2018-09-26T07:47:05.675Z,6.80
2018-09-26T07:49:34.469Z,6.57
2018-09-26T07:52:03.337Z,6.13
2018-09-26T07:54:32.131Z,5.90
2018-09-26T07:57:00.844Z,5.53
2018-09-26T07:59:29.577Z,6.00
2018-09-26T08:01:58.371Z,5.13
2018-09-26T08:04:27.260Z,5.17
2018-09-26T08:06:56.038Z,5.87
2018-09-26T08:09:25.061Z,5.13
2018-09-26T08:11:54.008Z,5.27
2018-09-26T08:14:22.868Z,5.00
2018-09-26T08:16:51.775Z,5.13
2018-09-26T08:19:20.507Z,5.07
2018-09-26T08:21:49.354Z,5.53
2018-09-26T08:24:18.258Z,5.27
2018-09-26T08:26:47.162Z,4.80
2018-09-26T08:29:15.873Z,4.90
2018-09-26T08:31:44.750Z,4.77
2018-09-26T08:34:13.586Z,4.57
2018-09-26T08:36:42.384Z,4.87
2018-09-26T08:39:12.656Z,5.23
2018-09-26T08:41:41.861Z,4.50
2018-09-26T08:44:11.101Z,5.30
2018-09-26T08:46:40.056Z,4.70
2018-09-26T08:49:08.858Z,5.33
2018-09-26T08:51:38.845Z,5.87
2018-09-26T08:54:07.652Z,5.03
2018-09-26T08:56:36.410Z,5.00
2018-09-26T08:59:05.196Z,5.57
2018-09-26T09:01:40.358Z,5.17
2018-09-26T09:04:09.098Z,5.80
2018-09-26T09:06:37.867Z,5.47
2018-09-26T09:09:07.882Z,6.33
2018-09-26T09:11:39.080Z,6.53
2018-09-26T09:14:08.310Z,6.50
2018-09-26T09:16:37.253Z,6.23
2018-09-26T09:19:06.029Z,6.60
2018-09-26T09:21:34.935Z,6.97
2018-09-26T09:24:03.802Z,7.00
2018-09-26T09:26:32.673Z,6.57
2018-09-26T09:29:01.416Z,6.57
2018-09-26T09:31:31.069Z,7.23
2018-09-26T09:34:00.023Z,6.67
2018-09-26T09:36:28.865Z,6.63
2018-09-26T09:38:57.697Z,6.73
2018-09-26T09:41:26.433Z,6.87
2018-09-26T09:43:55.176Z,6.43
2018-09-26T09:46:24.207Z,7.23
2018-09-26T09:48:53.201Z,6.50
2018-09-26T09:51:22.075Z,6.63
2018-09-26T09:53:50.881Z,6.43
2018-09-26T09:56:19.678Z,6.47
2018-09-26T09:58:48.453Z,7.23
2018-09-26T10:01:22.634Z,7.53
2018-09-26T10:03:51.534Z,6.80
2018-09-26T10:06:20.258Z,7.23
2018-09-26T10:08:49.327Z,6.90
2018-09-26T10:11:18.103Z,6.93
2018-09-26T10:13:47.121Z,6.57
2018-09-26T10:16:15.806Z,7.03
2018-09-26T10:18:45.095Z,6.93
2018-09-26T10:21:14.147Z,6.43
2018-09-26T10:23:42.993Z,6.50
2018-09-26T10:26:11.997Z,6.00
2018-09-26T10:28:41.330Z,5.80
2018-09-26T10:31:10.523Z,5.80
2018-09-26T10:33:39.460Z,5.47
2018-09-26T10:36:08.141Z,5.70
2018-09-26T10:38:37.745Z,5.60
2018-09-26T10:41:06.635Z,5.50
2018-09-26T10:43:36.219Z,5.40
2018-09-26T10:46:04.958Z,5.20
2018-09-26T10:48:33.891Z,5.80
2018-09-26T10:51:02.832Z,5.60
2018-09-26T10:53:31.605Z,5.67
2018-09-26T10:56:00.306Z,5.50
2018-09-26T10:58:29.679Z,5.80
2018-09-26T11:00:58.596Z,5.77
2018-09-26T11:03:27.478Z,5.73
2018-09-26T11:05:56.189Z,4.80
2018-09-26T11:08:24.972Z,5.10
2018-09-26T11:10:53.749Z,5.53
2018-09-26T11:13:22.634Z,4.97
2018-09-26T11:15:51.999Z,5.33
2018-09-26T11:18:21.025Z,5.83
2018-09-26T11:20:50.046Z,4.63
2018-09-26T11:23:19.527Z,4.30
2018-09-26T11:25:48.468Z,5.60
2018-09-26T11:28:17.344Z,4.40
2018-09-26T11:30:47.392Z,4.63
2018-09-26T11:33:16.227Z,3.90
2018-09-26T11:35:45.096Z,3.93
2018-09-26T11:38:14.098Z,4.50
2018-09-26T11:40:44.347Z,4.40
2018-09-26T11:43:13.037Z,5.30
2018-09-26T11:45:42.000Z,4.03
2018-09-26T11:48:11.018Z,4.13
2018-09-26T11:50:40.244Z,3.63
2018-09-26T11:53:09.100Z,4.80
2018-09-26T11:55:37.880Z,4.40
2018-09-26T11:58:06.937Z,3.37
2018-09-26T12:00:35.839Z,4.10
2018-09-26T12:03:04.570Z,3.47
2018-09-26T12:05:33.366Z,3.40
2018-09-26T12:08:02.137Z,3.50
2018-09-26T12:10:30.923Z,3.80
2018-09-26T12:12:59.710Z,3.27
2018-09-26T12:15:31.637Z,3.20
2018-09-26T12:18:01.635Z,3.70
2018-09-26T12:20:31.172Z,3.60
2018-09-26T12:23:00.174Z,3.90
2018-09-26T12:25:29.149Z,3.70
2018-09-26T12:27:58.072Z,3.60
2018-09-26T12:30:27.109Z,3.00
2018-09-26T12:32:56.147Z,3.20
2018-09-26T12:35:24.992Z,3.77
2018-09-26T12:37:53.735Z,3.20
2018-09-26T12:40:22.817Z,2.90
2018-09-26T12:42:51.856Z,3.00
2018-09-26T12:45:20.767Z,3.33
2018-09-26T12:47:51.788Z,3.53
2018-09-26T12:50:20.682Z,3.30
2018-09-26T12:52:49.646Z,3.47
2018-09-26T12:55:18.463Z,3.60
2018-09-26T12:57:47.266Z,3.40
2018-09-26T13:00:16.098Z,3.00
2018-09-26T13:02:44.956Z,2.67
2018-09-26T13:05:13.747Z,3.03
2018-09-26T13:07:42.548Z,3.13
2018-09-26T13:10:11.339Z,3.20
2018-09-26T13:12:40.334Z,3.50
2018-09-26T13:15:09.195Z,2.90
2018-09-26T13:17:37.946Z,2.60
2018-09-26T13:20:08.427Z,2.53
2018-09-26T13:22:37.419Z,2.30
2018-09-26T13:25:06.264Z,2.83
2018-09-26T13:27:35.022Z,2.23
2018-09-26T13:30:03.888Z,2.80
2018-09-26T13:32:32.729Z,2.50
2018-09-26T13:35:01.580Z,2.20
2018-09-26T13:37:30.375Z,2.17
2018-09-26T13:39:59.170Z,2.20
2018-09-26T13:42:28.506Z,2.30
2018-09-26T13:44:57.567Z,2.13
2018-09-26T13:47:26.523Z,2.10
2018-09-26T13:49:55.378Z,1.90
2018-09-26T13:52:25.168Z,1.97
2018-09-26T13:54:54.119Z,2.53
2018-09-26T13:57:22.895Z,2.13
2018-09-26T13:59:51.583Z,2.40
2018-09-26T14:02:20.446Z,2.23
2018-09-26T14:04:49.255Z,2.63
2018-09-26T14:07:17.955Z,2.33
2018-09-26T14:09:46.741Z,2.40
2018-09-26T14:12:15.519Z,2.00
2018-09-26T14:14:44.567Z,2.40
2018-09-26T14:17:13.419Z,2.20
2018-09-26T14:19:45.312Z,2.10
2018-09-26T14:22:14.844Z,2.33
2018-09-26T14:24:44.408Z,2.60
2018-09-26T14:27:13.328Z,2.40
2018-09-26T14:29:42.155Z,2.13
2018-09-26T14:32:11.221Z,2.20
2018-09-26T14:34:40.034Z,2.40
2018-09-26T14:37:08.827Z,1.97
2018-09-26T14:39:38.820Z,2.33
2018-09-26T14:42:07.663Z,2.87
2018-09-26T14:44:36.444Z,2.73
2018-09-26T14:47:05.285Z,2.20
2018-09-26T14:49:34.172Z,2.00
2018-09-26T14:52:03.095Z,2.27
2018-09-26T14:54:31.965Z,2.13
2018-09-26T14:57:00.876Z,2.03
2018-09-26T14:59:29.879Z,2.10
2018-09-26T15:01:59.117Z,2.23
2018-09-26T15:04:28.741Z,2.50
2018-09-26T15:06:57.718Z,2.17
2018-09-26T15:09:26.539Z,2.10
2018-09-26T15:11:55.556Z,2.17
2018-09-26T15:14:24.478Z,2.53
2018-09-26T15:16:53.828Z,2.27
2018-09-26T15:19:22.739Z,2.40
2018-09-26T15:21:52.705Z,1.97
2018-09-26T15:24:21.542Z,1.77
2018-09-26T15:26:50.554Z,2.50
2018-09-26T15:29:19.581Z,2.20
2018-09-26T15:31:48.754Z,2.37
2018-09-26T15:34:17.632Z,3.40
2018-09-26T15:36:46.502Z,1.63
2018-09-26T15:39:15.388Z,2.17
2018-09-26T15:41:44.387Z,1.97
2018-09-26T15:44:13.200Z,1.93
2018-09-26T15:46:42.094Z,1.90
2018-09-26T15:49:11.005Z,2.27
2018-09-26T15:51:39.865Z,1.90
2018-09-26T15:54:09.050Z,1.80
2018-09-26T15:56:38.422Z,2.43
2018-09-26T15:59:07.336Z,1.83
2018-09-26T16:01:36.369Z,2.03
2018-09-26T16:04:05.286Z,2.20
2018-09-26T16:06:34.018Z,2.43
2018-09-26T16:09:03.100Z,2.37
2018-09-26T16:11:31.987Z,2.00
2018-09-26T16:14:00.989Z,2.07
2018-09-26T16:16:31.266Z,2.20
2018-09-26T16:19:00.112Z,2.13
2018-09-26T16:21:29.114Z,2.27
2018-09-26T16:23:57.919Z,2.37
2018-09-26T16:26:26.763Z,2.33
2018-09-26T16:28:55.912Z,1.87
2018-09-26T16:31:24.863Z,2.43
2018-09-26T16:33:53.779Z,2.10
2018-09-26T16:36:22.709Z,2.53
2018-09-26T16:38:51.432Z,2.23
2018-09-26T16:41:20.429Z,1.97
2018-09-26T16:43:49.198Z,2.30
2018-09-26T16:46:18.032Z,2.10
2018-09-26T16:48:46.693Z,2.27
2018-09-26T16:51:15.658Z,2.07
2018-09-26T16:53:44.549Z,2.40
2018-09-26T16:56:14.000Z,2.13
2018-09-26T16:58:43.258Z,2.20
2018-09-26T17:01:13.250Z,1.90
2018-09-26T17:03:42.364Z,2.13
2018-09-26T17:06:11.363Z,2.40
2018-09-26T17:08:40.270Z,2.33
2018-09-26T17:11:09.243Z,2.27
2018-09-26T17:13:38.276Z,2.60
2018-09-26T17:16:07.127Z,2.60
2018-09-26T17:18:42.568Z,2.40
2018-09-26T17:21:11.305Z,2.30
2018-09-26T17:23:40.191Z,2.47
2018-09-26T17:26:09.148Z,2.73
2018-09-26T17:28:38.071Z,2.73
2018-09-26T17:31:07.621Z,2.83
2018-09-26T17:33:36.660Z,3.37
2018-09-26T17:36:05.672Z,7.60
2018-09-26T17:38:34.828Z,7.90
2018-09-26T17:41:05.394Z,5.60
2018-09-26T17:43:35.974Z,4.70
2018-09-26T17:46:05.952Z,3.77
2018-09-26T17:48:39.253Z,2.37
2018-09-26T17:51:08.796Z,2.33
2018-09-26T17:53:38.895Z,3.00
2018-09-26T17:56:08.694Z,2.63
2018-09-26T17:58:37.668Z,2.17
2018-09-26T18:01:08.019Z,2.67
2018-09-26T18:03:37.027Z,2.97
2018-09-26T18:06:06.255Z,3.07
2018-09-26T18:08:35.086Z,3.17
2018-09-26T18:11:03.923Z,2.13
2018-09-26T18:13:32.675Z,2.60
2018-09-26T18:16:01.529Z,2.40
2018-09-26T18:18:30.323Z,2.80
2018-09-26T18:20:59.129Z,2.70
2018-09-26T18:23:28.935Z,2.33
2018-09-26T18:25:58.803Z,2.53
2018-09-26T18:28:27.526Z,2.47
2018-09-26T18:30:56.335Z,2.20
2018-09-26T18:33:25.225Z,2.50
2018-09-26T18:35:53.952Z,2.93
2018-09-26T18:38:22.873Z,2.00
2018-09-26T18:40:51.630Z,3.03
2018-09-26T18:43:20.611Z,2.33
2018-09-26T18:45:49.490Z,2.80
2018-09-26T18:48:18.363Z,2.80
2018-09-26T18:50:47.190Z,2.60
2018-09-26T18:53:16.083Z,3.13
2018-09-26T18:55:45.219Z,2.63
2018-09-26T18:58:15.197Z,2.70
2018-09-26T19:00:43.980Z,3.43
2018-09-26T19:03:12.887Z,3.33
2018-09-26T19:05:41.703Z,3.23
2018-09-26T19:08:10.448Z,3.17
2018-09-26T19:10:39.343Z,2.80
2018-09-26T19:13:08.180Z,3.10
2018-09-26T19:15:36.876Z,3.27
2018-09-26T19:18:05.608Z,3.20
2018-09-26T19:20:34.461Z,3.10
2018-09-26T19:23:03.133Z,3.30
2018-09-26T19:25:31.811Z,3.10
2018-09-26T19:28:00.623Z,3.57
2018-09-26T19:30:29.319Z,3.50
2018-09-26T19:32:58.084Z,3.10
2018-09-26T19:35:26.773Z,2.80
2018-09-26T19:37:55.519Z,3.77
2018-09-26T19:40:26.954Z,3.33
2018-09-26T19:43:04.592Z,3.30
2018-09-26T19:45:39.074Z,3.30
2018-09-26T19:48:07.865Z,3.40
2018-09-26T19:50:39.979Z,3.50
2018-09-26T19:53:09.488Z,3.53
2018-09-26T19:55:38.294Z,3.93
2018-09-26T19:58:07.007Z,3.63
2018-09-26T20:00:35.906Z,3.53
2018-09-26T20:03:05.306Z,3.97
2018-09-26T20:05:34.035Z,3.30
2018-09-26T20:08:02.772Z,3.77
2018-09-26T20:10:31.706Z,3.53
2018-09-26T20:13:00.522Z,3.60
2018-09-26T20:15:29.237Z,3.40
2018-09-26T20:17:59.419Z,3.63
2018-09-26T20:20:29.251Z,3.20
2018-09-26T20:22:58.418Z,3.57
2018-09-26T20:25:27.262Z,3.33
2018-09-26T20:27:56.088Z,3.60
2018-09-26T20:30:27.632Z,3.77
2018-09-26T20:32:56.715Z,4.03
2018-09-26T20:35:25.601Z,4.17
2018-09-26T20:37:54.392Z,3.87
2018-09-26T20:40:24.446Z,3.40
2018-09-26T20:42:53.246Z,3.67
2018-09-26T20:45:22.203Z,3.87
2018-09-26T20:47:50.985Z,3.90
2018-09-26T20:50:19.752Z,4.00
2018-09-26T20:52:49.289Z,4.60
2018-09-26T20:55:18.087Z,3.97
2018-09-26T20:57:46.960Z,4.13
2018-09-26T21:00:15.748Z,3.97
2018-09-26T21:02:44.537Z,3.60
2018-09-26T21:05:13.207Z,4.20
2018-09-26T21:07:42.000Z,4.17
2018-09-26T21:10:10.900Z,4.50
2018-09-26T21:12:39.754Z,3.93
2018-09-26T21:15:08.877Z,4.67
2018-09-26T21:17:37.678Z,4.20
2018-09-26T21:20:06.411Z,4.13
2018-09-26T21:22:35.389Z,4.13
2018-09-26T21:25:04.292Z,4.20
2018-09-26T21:27:33.942Z,4.73
2018-09-26T21:30:02.763Z,4.33
2018-09-26T21:32:31.535Z,4.27
2018-09-26T21:35:00.312Z,4.20
2018-09-26T21:37:29.114Z,4.10
2018-09-26T21:39:57.901Z,3.80
2018-09-26T21:42:27.940Z,4.10
2018-09-26T21:44:56.768Z,4.50
2018-09-26T21:47:25.464Z,4.40
2018-09-26T21:49:54.297Z,5.03
2018-09-26T21:52:23.172Z,5.30
2018-09-26T21:54:51.950Z,5.07
2018-09-26T21:57:21.184Z,5.13
2018-09-26T21:59:49.921Z,5.47
2018-09-26T22:02:18.750Z,5.60
2018-09-26T22:04:47.510Z,5.20
2018-09-26T22:07:16.259Z,4.97
2018-09-26T22:09:45.591Z,5.93
2018-09-26T22:12:14.541Z,5.10
2018-09-26T22:14:43.333Z,5.37
2018-09-26T22:17:12.620Z,5.03
2018-09-26T22:19:43.215Z,5.77
2018-09-26T22:22:11.977Z,4.80
2018-09-26T22:24:40.765Z,5.67
2018-09-26T22:27:09.461Z,5.60
2018-09-26T22:29:38.157Z,5.80
2018-09-26T22:32:06.917Z,5.60
2018-09-26T22:34:35.637Z,5.73
2018-09-26T22:37:04.374Z,6.27
2018-09-26T22:39:33.242Z,5.50
2018-09-26T22:42:02.097Z,5.83
2018-09-26T22:44:30.770Z,5.73
2018-09-26T22:46:59.570Z,5.93
2018-09-26T22:49:28.369Z,5.77
2018-09-26T22:51:57.161Z,5.87
2018-09-26T22:54:26.005Z,6.00
2018-09-26T22:56:54.739Z,6.30
2018-09-26T22:59:23.604Z,6.13
2018-09-26T23:01:52.357Z,6.40
2018-09-26T23:04:21.176Z,7.03
2018-09-26T23:06:49.903Z,6.07
2018-09-26T23:09:18.585Z,6.73
2018-09-26T23:11:47.515Z,6.83
2018-09-26T23:14:16.238Z,7.10
2018-09-26T23:16:44.975Z,7.43
2018-09-26T23:19:13.709Z,7.03
2018-09-26T23:21:42.466Z,8.33
2018-09-26T23:24:11.168Z,8.23
2018-09-26T23:26:39.901Z,7.87
2018-09-26T23:29:08.657Z,7.87
2018-09-26T23:31:37.439Z,9.00
2018-09-26T23:34:06.165Z,8.27
2018-09-26T23:36:34.892Z,9.03
2018-09-26T23:39:05.729Z,9.13
2018-09-26T23:41:34.517Z,9.13
2018-09-26T23:44:03.232Z,8.70
2018-09-26T23:46:32.063Z,10.20
2018-09-26T23:49:00.774Z,10.23
2018-09-26T23:51:29.640Z,11.93
2018-09-26T23:53:58.891Z,12.33
2018-09-26T23:56:27.705Z,12.77
2018-09-26T23:58:56.804Z,12.93
